createdAt,value
2019-05-05T00:00:21.140Z,0
2019-05-05T00:01:21.819Z,0
2019-05-05T00:02:22.500Z,0
2019-05-05T00:03:24.933Z,0
2019-05-05T00:04:24.326Z,0
2019-05-05T00:05:24.740Z,0
2019-05-05T00:06:25.248Z,0
2019-05-05T00:07:25.929Z,0
2019-05-05T00:08:26.609Z,0
2019-05-05T00:09:27.282Z,0
2019-05-05T00:10:27.965Z,0
2019-05-05T00:11:28.643Z,0
2019-05-05T00:12:29.318Z,0
2019-05-05T00:13:29.997Z,0
2019-05-05T00:14:30.695Z,0
2019-05-05T00:15:31.356Z,0
2019-05-05T00:16:32.031Z,0
2019-05-05T00:17:34.252Z,0
2019-05-05T00:18:34.647Z,0
2019-05-05T00:19:35.870Z,0
2019-05-05T00:20:34.741Z,0
2019-05-05T00:21:35.419Z,0
2019-05-05T00:22:36.101Z,0
2019-05-05T00:23:36.780Z,0
2019-05-05T00:24:37.459Z,0
2019-05-05T00:25:38.141Z,0
2019-05-05T00:26:38.828Z,0
2019-05-05T00:27:39.508Z,0
2019-05-05T00:28:40.209Z,0
2019-05-05T00:29:40.836Z,0
2019-05-05T00:30:41.524Z,0
2019-05-05T00:31:42.192Z,0
2019-05-05T00:32:44.263Z,0
2019-05-05T00:33:44.895Z,0
2019-05-05T00:34:44.557Z,0
2019-05-05T00:35:45.206Z,0
2019-05-05T00:36:45.576Z,0
2019-05-05T00:37:46.255Z,0
2019-05-05T00:38:46.935Z,0
2019-05-05T00:39:47.611Z,0
2019-05-05T00:40:48.298Z,0
2019-05-05T00:41:48.945Z,0
2019-05-05T00:42:49.622Z,0
2019-05-05T00:43:50.306Z,0
2019-05-05T00:44:50.982Z,0
2019-05-05T00:45:51.662Z,0
2019-05-05T00:46:52.344Z,0
2019-05-05T00:47:54.424Z,0
2019-05-05T00:48:55.020Z,0
2019-05-05T00:49:56.333Z,0
2019-05-05T00:50:55.664Z,0
2019-05-05T00:51:55.720Z,0
2019-05-05T00:52:56.399Z,0
2019-05-05T00:53:57.077Z,0
2019-05-05T00:54:57.763Z,0
2019-05-05T00:55:58.437Z,0
2019-05-05T00:56:59.114Z,0
2019-05-05T00:57:59.794Z,0
2019-05-05T00:59:00.521Z,0
2019-05-05T01:00:01.207Z,0
2019-05-05T01:01:01.890Z,0
2019-05-05T01:02:04.492Z,0
2019-05-05T01:03:04.737Z,0
2019-05-05T01:04:05.241Z,0
2019-05-05T01:05:04.649Z,0
2019-05-05T01:06:05.260Z,0
2019-05-05T01:07:05.940Z,0
2019-05-05T01:08:06.627Z,0
2019-05-05T01:09:07.306Z,0
2019-05-05T01:10:07.993Z,0
2019-05-05T01:11:08.669Z,0
2019-05-05T01:12:09.342Z,0
2019-05-05T01:13:10.025Z,0
2019-05-05T01:14:10.720Z,0
2019-05-05T01:15:11.413Z,0
2019-05-05T01:16:12.083Z,0
2019-05-05T01:17:14.552Z,0
2019-05-05T01:18:15.260Z,0
2019-05-05T01:19:14.996Z,0
2019-05-05T01:20:14.786Z,0
2019-05-05T01:21:15.463Z,0
2019-05-05T01:22:16.139Z,0
2019-05-05T01:23:16.816Z,0
2019-05-05T01:24:17.505Z,0
2019-05-05T01:25:18.184Z,0
2019-05-05T01:26:18.868Z,0
2019-05-05T01:27:19.538Z,0
2019-05-05T01:28:20.234Z,0
2019-05-05T01:29:20.902Z,0
2019-05-05T01:30:21.592Z,0
2019-05-05T01:31:22.257Z,0
2019-05-05T01:32:24.683Z,0
2019-05-05T01:33:25.041Z,0
2019-05-05T01:34:24.448Z,0
2019-05-05T01:35:25.011Z,0
2019-05-05T01:36:25.689Z,0
2019-05-05T01:37:26.337Z,0
2019-05-05T01:38:27.019Z,0
2019-05-05T01:39:27.699Z,0
2019-05-05T01:40:28.380Z,0
2019-05-05T01:41:29.058Z,0
2019-05-05T01:42:29.728Z,0
2019-05-05T01:43:30.418Z,0
2019-05-05T01:44:31.108Z,0
2019-05-05T01:45:31.780Z,0
2019-05-05T01:46:32.455Z,0
2019-05-05T01:47:34.722Z,0
2019-05-05T01:48:35.076Z,0
2019-05-05T01:49:34.601Z,0
2019-05-05T01:50:35.167Z,0
2019-05-05T01:51:35.858Z,0
2019-05-05T01:52:36.532Z,0
2019-05-05T01:53:37.210Z,0
2019-05-05T01:54:37.887Z,0
2019-05-05T01:55:38.570Z,0
2019-05-05T01:56:39.243Z,0
2019-05-05T01:57:39.925Z,0
2019-05-05T01:58:40.603Z,0
2019-05-05T01:59:41.279Z,0
2019-05-05T02:00:41.959Z,0
2019-05-05T02:01:44.495Z,0
2019-05-05T02:02:44.871Z,0
2019-05-05T02:03:44.309Z,0
2019-05-05T02:04:44.975Z,0
2019-05-05T02:05:45.649Z,0
2019-05-05T02:06:46.326Z,0
2019-05-05T02:07:47.010Z,0
2019-05-05T02:08:47.690Z,0
2019-05-05T02:09:48.371Z,0
2019-05-05T02:10:49.054Z,0
2019-05-05T02:11:49.730Z,0
2019-05-05T02:12:50.408Z,0
2019-05-05T02:13:51.090Z,0
2019-05-05T02:14:51.788Z,0
2019-05-05T02:15:52.553Z,0
2019-05-05T02:16:54.574Z,0
2019-05-05T02:17:55.130Z,0
2019-05-05T02:18:55.528Z,0
2019-05-05T02:19:56.208Z,0
2019-05-05T02:20:56.884Z,0
2019-05-05T02:21:57.565Z,0
2019-05-05T02:22:58.243Z,0
2019-05-05T02:23:58.920Z,0
2019-05-05T02:24:59.597Z,0
2019-05-05T02:26:00.283Z,0
2019-05-05T02:27:00.966Z,0
2019-05-05T02:28:01.648Z,0
2019-05-05T02:29:02.323Z,0
2019-05-05T02:30:06.048Z,0
2019-05-05T02:31:05.624Z,0
2019-05-05T02:32:06.343Z,0
2019-05-05T02:33:06.327Z,0
2019-05-05T02:34:05.693Z,0
2019-05-05T02:35:06.666Z,0
2019-05-05T02:36:07.048Z,0
2019-05-05T02:37:07.723Z,0
2019-05-05T02:38:08.419Z,0
2019-05-05T02:39:09.103Z,0
2019-05-05T02:40:09.780Z,0
2019-05-05T02:41:10.480Z,0
2019-05-05T02:42:11.162Z,0
2019-05-05T02:43:14.814Z,0
2019-05-05T02:44:15.222Z,0
2019-05-05T02:45:15.499Z,0
2019-05-05T02:46:14.472Z,0
2019-05-05T02:47:15.474Z,0
2019-05-05T02:48:15.614Z,0
2019-05-05T02:49:15.883Z,0
2019-05-05T02:50:16.580Z,0
2019-05-05T02:51:17.243Z,0
2019-05-05T02:52:17.921Z,0
2019-05-05T02:53:18.596Z,0
2019-05-05T02:54:19.279Z,0
2019-05-05T02:55:20.124Z,0
2019-05-05T02:56:20.785Z,0
2019-05-05T02:57:21.463Z,0
2019-05-05T02:58:22.143Z,0
2019-05-05T02:59:23.724Z,0
2019-05-05T03:00:24.012Z,0
2019-05-05T03:01:24.460Z,0
2019-05-05T03:02:24.837Z,0
2019-05-05T03:03:25.526Z,0
2019-05-05T03:04:26.199Z,0
2019-05-05T03:05:26.872Z,0
2019-05-05T03:06:27.548Z,0
2019-05-05T03:07:28.226Z,0
2019-05-05T03:08:28.904Z,0
2019-05-05T03:09:29.586Z,0
2019-05-05T03:10:30.266Z,0
2019-05-05T03:11:30.946Z,0
2019-05-05T03:12:31.640Z,0
2019-05-05T03:13:33.735Z,0
2019-05-05T03:14:34.106Z,0
2019-05-05T03:15:33.723Z,0
2019-05-05T03:16:34.386Z,0
2019-05-05T03:17:35.067Z,0
2019-05-05T03:18:35.740Z,0
2019-05-05T03:19:36.426Z,0
2019-05-05T03:20:37.098Z,0
2019-05-05T03:21:37.798Z,0
2019-05-05T03:22:38.472Z,0
2019-05-05T03:23:39.151Z,0
2019-05-05T03:24:39.830Z,0
2019-05-05T03:25:40.510Z,0
2019-05-05T03:26:41.189Z,0
2019-05-05T03:27:41.866Z,0
2019-05-05T03:28:43.825Z,0
2019-05-05T03:29:44.216Z,0
2019-05-05T03:30:45.515Z,0
2019-05-05T03:31:45.929Z,0
2019-05-05T03:32:45.831Z,0
2019-05-05T03:33:46.309Z,0
2019-05-05T03:34:46.604Z,0
2019-05-05T03:35:47.283Z,0
2019-05-05T03:36:47.965Z,0
2019-05-05T03:37:48.638Z,0
2019-05-05T03:38:49.327Z,5
2019-05-05T03:39:50.009Z,5
2019-05-05T03:40:50.688Z,5
2019-05-05T03:41:51.365Z,5
2019-05-05T03:42:53.600Z,5
2019-05-05T03:43:56.925Z,5
2019-05-05T03:44:54.514Z,5
2019-05-05T03:45:54.098Z,11
2019-05-05T03:46:54.772Z,11
2019-05-05T03:47:55.452Z,11
2019-05-05T03:48:56.139Z,11
2019-05-05T03:49:56.818Z,11
2019-05-05T03:50:57.498Z,11
2019-05-05T03:51:58.180Z,16
2019-05-05T03:52:58.877Z,16
2019-05-05T03:53:59.555Z,16
2019-05-05T03:55:00.238Z,16
2019-05-05T03:56:00.921Z,22
2019-05-05T03:57:03.468Z,22
2019-05-05T03:58:04.065Z,22
2019-05-05T03:59:04.716Z,28
2019-05-05T04:00:04.613Z,28
2019-05-05T04:01:05.297Z,28
2019-05-05T04:02:05.975Z,28
2019-05-05T04:03:06.668Z,33
2019-05-05T04:04:07.344Z,33
2019-05-05T04:05:08.027Z,33
2019-05-05T04:06:08.706Z,39
2019-05-05T04:07:09.391Z,39
2019-05-05T04:08:10.080Z,39
2019-05-05T04:09:10.753Z,45
2019-05-05T04:10:11.431Z,45
2019-05-05T04:11:13.908Z,45
2019-05-05T04:12:13.735Z,50
2019-05-05T04:13:13.977Z,50
2019-05-05T04:14:14.336Z,50
2019-05-05T04:15:14.867Z,56
2019-05-05T04:16:15.519Z,56
2019-05-05T04:17:16.201Z,56
2019-05-05T04:18:16.880Z,61
2019-05-05T04:19:17.534Z,61
2019-05-05T04:20:18.218Z,67
2019-05-05T04:21:30.213Z,67
2019-05-05T04:22:19.574Z,67
2019-05-05T04:23:20.261Z,73
2019-05-05T04:24:20.943Z,73
2019-05-05T04:25:21.628Z,73
2019-05-05T04:26:23.488Z,78
2019-05-05T04:27:23.914Z,78
2019-05-05T04:28:24.125Z,84
2019-05-05T04:29:24.488Z,84
2019-05-05T04:30:25.026Z,90
2019-05-05T04:31:25.709Z,90
2019-05-05T04:32:26.386Z,90
2019-05-05T04:33:27.070Z,95
2019-05-05T04:34:27.755Z,95
2019-05-05T04:35:28.461Z,95
2019-05-05T04:36:29.133Z,101
2019-05-05T04:37:29.818Z,101
2019-05-05T04:38:30.502Z,106
2019-05-05T04:39:31.192Z,106
2019-05-05T04:40:31.877Z,106
2019-05-05T04:41:33.780Z,112
2019-05-05T04:42:33.752Z,112
2019-05-05T04:43:33.951Z,118
2019-05-05T04:44:34.891Z,118
2019-05-05T04:45:35.304Z,118
2019-05-05T04:46:35.971Z,118
2019-05-05T04:47:36.653Z,118
2019-05-05T04:48:37.350Z,123
2019-05-05T04:49:38.033Z,123
2019-05-05T04:50:38.718Z,123
2019-05-05T04:51:47.616Z,129
2019-05-05T04:52:40.086Z,135
2019-05-05T04:53:40.778Z,135
2019-05-05T04:54:41.463Z,140
2019-05-05T04:55:44.181Z,140
2019-05-05T04:56:44.733Z,140
2019-05-05T04:57:44.473Z,146
2019-05-05T04:58:45.162Z,146
2019-05-05T04:59:45.852Z,151
2019-05-05T05:00:46.530Z,151
2019-05-05T05:01:47.214Z,157
2019-05-05T05:02:47.895Z,157
2019-05-05T05:03:48.604Z,157
2019-05-05T05:04:49.285Z,163
2019-05-05T05:05:49.976Z,168
2019-05-05T05:06:50.654Z,168
2019-05-05T05:07:51.341Z,168
2019-05-05T05:08:53.594Z,180
2019-05-05T05:09:54.020Z,191
2019-05-05T05:10:54.277Z,208
2019-05-05T05:11:54.676Z,264
2019-05-05T05:12:54.757Z,286
2019-05-05T05:13:55.445Z,213
2019-05-05T05:14:56.114Z,213
2019-05-05T05:15:56.796Z,258
2019-05-05T05:16:57.481Z,253
2019-05-05T05:17:58.170Z,253
2019-05-05T05:18:58.860Z,247
2019-05-05T05:19:59.547Z,236
2019-05-05T05:21:00.235Z,219
2019-05-05T05:22:02.115Z,258
2019-05-05T05:23:03.497Z,365
2019-05-05T05:24:04.004Z,399
2019-05-05T05:25:04.450Z,416
2019-05-05T05:26:05.062Z,365
2019-05-05T05:27:04.984Z,298
2019-05-05T05:28:05.012Z,354
2019-05-05T05:29:05.693Z,376
2019-05-05T05:30:06.385Z,438
2019-05-05T05:31:07.063Z,506
2019-05-05T05:32:07.758Z,556
2019-05-05T05:33:08.432Z,388
2019-05-05T05:34:09.119Z,388
2019-05-05T05:35:09.817Z,331
2019-05-05T05:36:10.494Z,320
2019-05-05T05:37:11.182Z,376
2019-05-05T05:38:13.854Z,421
2019-05-05T05:39:13.963Z,371
2019-05-05T05:40:14.415Z,382
2019-05-05T05:41:13.927Z,376
2019-05-05T05:42:14.612Z,365
2019-05-05T05:43:15.296Z,348
2019-05-05T05:44:15.985Z,354
2019-05-05T05:45:16.674Z,326
2019-05-05T05:46:17.366Z,320
2019-05-05T05:47:18.027Z,343
2019-05-05T05:48:18.715Z,410
2019-05-05T05:49:19.399Z,348
2019-05-05T05:50:20.096Z,331
2019-05-05T05:51:20.777Z,309
2019-05-05T05:52:21.480Z,298
2019-05-05T05:53:23.902Z,286
2019-05-05T05:54:23.806Z,298
2019-05-05T05:55:24.500Z,309
2019-05-05T05:56:25.193Z,286
2019-05-05T05:57:25.866Z,331
2019-05-05T05:58:26.629Z,360
2019-05-05T05:59:27.325Z,320
2019-05-05T06:00:28.021Z,331
2019-05-05T06:01:28.697Z,461
2019-05-05T06:02:29.386Z,590
2019-05-05T06:03:30.071Z,601
2019-05-05T06:04:30.776Z,534
2019-05-05T06:05:31.447Z,500
2019-05-05T06:06:32.139Z,438
2019-05-05T06:07:33.633Z,421
2019-05-05T06:08:34.662Z,433
2019-05-05T06:09:34.589Z,427
2019-05-05T06:10:34.877Z,399
2019-05-05T06:11:35.569Z,753
2019-05-05T06:12:36.251Z,399
2019-05-05T06:13:36.935Z,348
2019-05-05T06:14:37.634Z,360
2019-05-05T06:15:38.317Z,348
2019-05-05T06:16:39.001Z,382
2019-05-05T06:17:39.693Z,399
2019-05-05T06:18:40.388Z,416
2019-05-05T06:19:41.067Z,416
2019-05-05T06:20:41.750Z,416
2019-05-05T06:21:43.984Z,421
2019-05-05T06:22:44.668Z,399
2019-05-05T06:23:43.908Z,393
2019-05-05T06:24:44.495Z,405
2019-05-05T06:25:45.179Z,388
2019-05-05T06:26:45.864Z,376
2019-05-05T06:27:46.549Z,393
2019-05-05T06:28:47.236Z,416
2019-05-05T06:29:47.919Z,410
2019-05-05T06:30:48.606Z,399
2019-05-05T06:31:49.293Z,433
2019-05-05T06:32:49.984Z,472
2019-05-05T06:33:50.671Z,433
2019-05-05T06:34:53.413Z,483
2019-05-05T06:35:53.630Z,478
2019-05-05T06:36:53.791Z,720
2019-05-05T06:37:54.348Z,416
2019-05-05T06:38:54.225Z,405
2019-05-05T06:39:54.767Z,562
2019-05-05T06:40:55.459Z,472
2019-05-05T06:41:56.151Z,495
2019-05-05T06:42:56.836Z,652
2019-05-05T06:43:57.525Z,843
2019-05-05T06:44:58.211Z,478
2019-05-05T06:45:58.919Z,517
2019-05-05T06:46:59.592Z,427
2019-05-05T06:48:00.294Z,399
2019-05-05T06:49:00.963Z,382
2019-05-05T06:50:03.568Z,365
2019-05-05T06:51:03.990Z,427
2019-05-05T06:52:04.065Z,466
2019-05-05T06:53:04.269Z,444
2019-05-05T06:54:04.707Z,438
2019-05-05T06:55:05.077Z,528
2019-05-05T06:56:05.761Z,573
2019-05-05T06:57:06.454Z,630
2019-05-05T06:58:07.144Z,686
2019-05-05T06:59:07.828Z,714
2019-05-05T07:00:08.523Z,736
2019-05-05T07:01:09.216Z,776
2019-05-05T07:02:09.895Z,787
2019-05-05T07:03:10.585Z,753
2019-05-05T07:04:11.277Z,663
2019-05-05T07:05:13.807Z,618
2019-05-05T07:06:14.171Z,641
2019-05-05T07:07:14.529Z,748
2019-05-05T07:08:14.019Z,804
2019-05-05T07:09:14.711Z,838
2019-05-05T07:10:15.399Z,810
2019-05-05T07:11:16.095Z,776
2019-05-05T07:12:16.772Z,748
2019-05-05T07:13:17.460Z,798
2019-05-05T07:14:18.145Z,708
2019-05-05T07:15:18.841Z,725
2019-05-05T07:16:19.528Z,759
2019-05-05T07:17:20.215Z,821
2019-05-05T07:18:20.902Z,804
2019-05-05T07:19:23.809Z,787
2019-05-05T07:20:24.030Z,815
2019-05-05T07:21:23.714Z,787
2019-05-05T07:22:24.475Z,793
2019-05-05T07:23:24.724Z,849
2019-05-05T07:24:25.019Z,916
2019-05-05T07:25:25.721Z,1006
2019-05-05T07:26:26.406Z,1153
2019-05-05T07:27:27.092Z,967
2019-05-05T07:28:27.805Z,1046
2019-05-05T07:29:28.494Z,1288
2019-05-05T07:30:29.171Z,1051
2019-05-05T07:31:29.858Z,883
2019-05-05T07:32:30.556Z,849
2019-05-05T07:33:31.245Z,843
2019-05-05T07:34:33.496Z,916
2019-05-05T07:35:34.511Z,945
2019-05-05T07:36:34.037Z,1383
2019-05-05T07:37:34.504Z,1254
2019-05-05T07:38:35.176Z,1293
2019-05-05T07:39:35.997Z,1063
2019-05-05T07:40:36.680Z,961
2019-05-05T07:41:40.419Z,2103
2019-05-05T07:42:38.100Z,1181
2019-05-05T07:43:38.790Z,1203
2019-05-05T07:44:39.490Z,1670
2019-05-05T07:45:40.182Z,2047
2019-05-05T07:46:40.880Z,1440
2019-05-05T07:47:43.563Z,1777
2019-05-05T07:48:44.172Z,1715
2019-05-05T07:49:44.139Z,1299
2019-05-05T07:50:47.976Z,1141
2019-05-05T07:51:44.485Z,1282
2019-05-05T07:52:45.011Z,2188
2019-05-05T07:53:45.701Z,1170
2019-05-05T07:54:46.399Z,1209
2019-05-05T07:55:47.085Z,1192
2019-05-05T07:56:47.842Z,1288
2019-05-05T07:57:48.548Z,1642
2019-05-05T07:58:49.248Z,1198
2019-05-05T07:59:49.939Z,1299
2019-05-05T08:00:50.631Z,1215
2019-05-05T08:01:51.293Z,1490
2019-05-05T08:02:54.271Z,1310
2019-05-05T08:03:53.849Z,1333
2019-05-05T08:04:54.424Z,1366
2019-05-05T08:05:54.571Z,1620
2019-05-05T08:06:54.754Z,1490
2019-05-05T08:07:55.444Z,1299
2019-05-05T08:08:56.130Z,1445
2019-05-05T08:09:56.827Z,1867
2019-05-05T08:10:57.534Z,1271
2019-05-05T08:11:58.217Z,1085
2019-05-05T08:12:58.944Z,973
2019-05-05T08:13:59.648Z,961
2019-05-05T08:15:00.346Z,922
2019-05-05T08:16:03.697Z,888
2019-05-05T08:17:03.610Z,871
2019-05-05T08:18:04.579Z,871
2019-05-05T08:19:03.912Z,804
2019-05-05T08:20:04.185Z,736
2019-05-05T08:21:04.928Z,776
2019-05-05T08:22:05.640Z,607
2019-05-05T08:23:08.254Z,534
2019-05-05T08:24:06.994Z,472
2019-05-05T08:25:07.685Z,393
2019-05-05T08:26:08.373Z,303
2019-05-05T08:27:09.064Z,225
2019-05-05T08:28:09.756Z,191
2019-05-05T08:29:10.449Z,185
2019-05-05T08:30:11.144Z,196
2019-05-05T08:31:11.835Z,213
2019-05-05T08:32:13.590Z,247
2019-05-05T08:33:14.036Z,286
2019-05-05T08:34:14.314Z,309
2019-05-05T08:35:14.822Z,309
2019-05-05T08:36:15.282Z,320
2019-05-05T08:37:15.978Z,337
2019-05-05T08:38:16.667Z,388
2019-05-05T08:39:17.362Z,444
2019-05-05T08:40:18.049Z,483
2019-05-05T08:41:18.734Z,472
2019-05-05T08:42:19.403Z,472
2019-05-05T08:43:20.101Z,528
2019-05-05T08:44:20.907Z,573
2019-05-05T08:45:26.008Z,630
2019-05-05T08:46:22.293Z,658
2019-05-05T08:47:24.593Z,669
2019-05-05T08:48:24.666Z,669
2019-05-05T08:49:24.539Z,680
2019-05-05T08:50:27.106Z,635
2019-05-05T08:51:25.718Z,551
2019-05-05T08:52:26.405Z,500
2019-05-05T08:53:40.723Z,500
2019-05-05T08:54:27.796Z,534
2019-05-05T08:55:28.580Z,573
2019-05-05T08:56:29.185Z,669
2019-05-05T08:57:29.874Z,770
2019-05-05T08:58:30.570Z,973
2019-05-05T08:59:33.479Z,1147
2019-05-05T09:00:33.848Z,1423
2019-05-05T09:01:34.304Z,1659
2019-05-05T09:02:36.017Z,1788
2019-05-05T09:03:34.012Z,1940
2019-05-05T09:04:34.708Z,1828
2019-05-05T09:05:35.408Z,2143
2019-05-05T09:06:37.787Z,1372
2019-05-05T09:07:36.791Z,1203
2019-05-05T09:08:37.490Z,1209
2019-05-05T09:09:38.183Z,961
2019-05-05T09:10:38.874Z,1040
2019-05-05T09:11:39.582Z,973
2019-05-05T09:12:40.280Z,973
2019-05-05T09:13:40.968Z,1158
2019-05-05T09:14:41.672Z,1366
2019-05-05T09:15:44.360Z,1850
2019-05-05T09:16:44.825Z,1648
2019-05-05T09:17:44.128Z,1777
2019-05-05T09:18:44.427Z,3875
2019-05-05T09:19:45.138Z,1777
2019-05-05T09:20:45.810Z,2548
2019-05-05T09:21:46.505Z,3138
2019-05-05T09:22:47.200Z,2981
2019-05-05T09:23:59.150Z,2266
2019-05-05T09:24:48.589Z,2463
2019-05-05T09:25:49.277Z,3853
2019-05-05T09:26:49.970Z,4269
2019-05-05T09:27:50.661Z,4055
2019-05-05T09:28:51.353Z,2221
2019-05-05T09:29:53.820Z,1614
2019-05-05T09:30:53.681Z,1721
2019-05-05T09:31:54.021Z,1788
2019-05-05T09:32:54.228Z,1541
2019-05-05T09:33:54.809Z,1513
2019-05-05T09:34:55.506Z,1614
2019-05-05T09:35:56.197Z,1850
2019-05-05T09:36:56.898Z,2531
2019-05-05T09:37:57.586Z,2075
2019-05-05T09:38:58.273Z,1670
2019-05-05T09:39:58.971Z,1681
2019-05-05T09:40:59.674Z,1693
2019-05-05T09:42:00.409Z,2171
2019-05-05T09:43:01.102Z,3819
2019-05-05T09:44:01.773Z,1963
2019-05-05T09:46:15.704Z,2086
2019-05-05T09:47:16.397Z,3358
2019-05-05T09:48:17.094Z,2233
2019-05-05T09:49:17.794Z,3166
2019-05-05T09:50:18.479Z,1783
2019-05-05T09:51:19.174Z,1423
2019-05-05T09:52:19.867Z,1338
2019-05-05T09:53:20.563Z,1271
2019-05-05T09:54:21.279Z,1507
2019-05-05T09:55:24.083Z,2964
2019-05-05T09:56:23.601Z,2261
2019-05-05T09:57:23.810Z,1440
2019-05-05T09:58:24.299Z,1755
2019-05-05T09:59:24.779Z,3875
2019-05-05T10:00:25.489Z,3920
2019-05-05T10:01:26.186Z,2773
2019-05-05T10:02:26.938Z,1597
2019-05-05T10:03:27.584Z,1473
2019-05-05T10:04:28.276Z,3796
2019-05-05T10:05:28.971Z,3881
2019-05-05T10:06:29.663Z,3813
2019-05-05T10:07:30.357Z,4111
2019-05-05T10:08:31.049Z,2598
2019-05-05T10:09:31.749Z,4201
2019-05-05T10:10:33.752Z,4117
2019-05-05T10:11:34.946Z,1125
2019-05-05T10:12:33.908Z,2463
2019-05-05T10:13:34.529Z,3751
2019-05-05T10:14:35.221Z,3763
2019-05-05T10:15:35.918Z,3718
2019-05-05T10:16:36.627Z,3841
2019-05-05T10:17:37.320Z,3465
2019-05-05T10:18:38.019Z,3982
2019-05-05T10:19:38.722Z,4010
2019-05-05T10:20:39.424Z,2435
2019-05-05T10:21:40.115Z,2272
2019-05-05T10:22:40.806Z,3037
2019-05-05T10:23:43.515Z,3864
2019-05-05T10:24:44.220Z,3870
2019-05-05T10:25:44.652Z,3892
2019-05-05T10:26:43.877Z,3999
2019-05-05T10:27:47.592Z,1760
2019-05-05T10:28:44.996Z,3487
2019-05-05T10:29:45.685Z,1141
2019-05-05T10:30:46.380Z,950
2019-05-05T10:31:47.080Z,1096
2019-05-05T10:32:47.780Z,3785
2019-05-05T10:33:48.480Z,4291
2019-05-05T10:34:49.196Z,3425
2019-05-05T10:35:49.893Z,2559
2019-05-05T10:36:50.583Z,2098
2019-05-05T10:37:51.301Z,2812
2019-05-05T10:38:53.809Z,2475
2019-05-05T10:39:54.260Z,3116
2019-05-05T10:40:53.719Z,1710
2019-05-05T10:41:56.119Z,1456
2019-05-05T10:42:54.764Z,1288
2019-05-05T10:43:55.460Z,1248
2019-05-05T10:44:56.157Z,1237
2019-05-05T10:45:56.859Z,1136
2019-05-05T10:46:57.554Z,900
2019-05-05T10:47:58.259Z,635
2019-05-05T10:48:59.870Z,466
2019-05-05T10:49:59.654Z,337
2019-05-05T10:51:00.343Z,286
2019-05-05T10:52:01.039Z,286
2019-05-05T10:53:01.747Z,292
2019-05-05T10:54:04.052Z,286
2019-05-05T10:55:03.940Z,275
2019-05-05T10:56:04.401Z,281
2019-05-05T10:57:04.512Z,315
2019-05-05T10:58:05.205Z,365
2019-05-05T10:59:05.899Z,393
2019-05-05T11:00:12.268Z,388
2019-05-05T11:01:07.299Z,371
2019-05-05T11:02:08.010Z,360
2019-05-05T11:03:08.699Z,365
2019-05-05T11:04:09.395Z,399
2019-05-05T11:05:10.101Z,433
2019-05-05T11:06:10.805Z,450
2019-05-05T11:07:11.496Z,461
2019-05-05T11:08:13.663Z,500
2019-05-05T11:09:13.979Z,556
2019-05-05T11:10:14.203Z,613
2019-05-05T11:11:14.273Z,663
2019-05-05T11:12:14.967Z,736
2019-05-05T11:13:15.669Z,810
2019-05-05T11:14:16.371Z,883
2019-05-05T11:15:17.068Z,939
2019-05-05T11:16:17.769Z,984
2019-05-05T11:17:18.463Z,1029
2019-05-05T11:18:19.159Z,1068
2019-05-05T11:19:19.857Z,1102
2019-05-05T11:20:20.555Z,1147
2019-05-05T11:21:21.249Z,1186
2019-05-05T11:22:24.047Z,1243
2019-05-05T11:23:24.789Z,1260
2019-05-05T11:24:23.993Z,1299
2019-05-05T11:25:24.678Z,1338
2019-05-05T11:26:25.375Z,1383
2019-05-05T11:27:26.065Z,1485
2019-05-05T11:28:26.761Z,1625
2019-05-05T11:29:27.451Z,1828
2019-05-05T11:30:28.149Z,1710
2019-05-05T11:31:28.827Z,1524
2019-05-05T11:32:29.514Z,1445
2019-05-05T11:33:30.230Z,1428
2019-05-05T11:34:30.911Z,1378
2019-05-05T11:35:33.740Z,1321
2019-05-05T11:36:34.450Z,1327
2019-05-05T11:37:34.211Z,1321
2019-05-05T11:38:33.960Z,1355
2019-05-05T11:39:34.376Z,1411
2019-05-05T11:40:35.075Z,1479
2019-05-05T11:41:35.766Z,1445
2019-05-05T11:42:36.479Z,1434
2019-05-05T11:43:37.170Z,1417
2019-05-05T11:44:37.936Z,1361
2019-05-05T11:45:38.632Z,1175
2019-05-05T11:46:39.336Z,945
2019-05-05T11:47:40.022Z,765
2019-05-05T11:48:40.714Z,691
2019-05-05T11:49:41.405Z,691
2019-05-05T11:50:43.684Z,703
2019-05-05T11:51:43.743Z,714
2019-05-05T11:52:44.423Z,725
2019-05-05T11:53:44.798Z,770
2019-05-05T11:54:44.881Z,821
2019-05-05T11:55:45.558Z,860
2019-05-05T11:56:46.253Z,871
2019-05-05T11:57:46.962Z,888
2019-05-05T11:58:47.657Z,933
2019-05-05T11:59:48.352Z,995
2019-05-05T12:00:49.068Z,1035
2019-05-05T12:01:49.762Z,1063
2019-05-05T12:02:50.456Z,1080
2019-05-05T12:03:53.463Z,1085
2019-05-05T12:04:53.937Z,1085
2019-05-05T12:05:52.533Z,1063
2019-05-05T12:06:53.227Z,1051
2019-05-05T12:07:54.162Z,1046
2019-05-05T12:08:54.615Z,1040
2019-05-05T12:09:55.307Z,1046
2019-05-05T12:10:56.039Z,1057
2019-05-05T12:11:56.738Z,1080
2019-05-05T12:12:57.438Z,1108
2019-05-05T12:13:58.132Z,1158
2019-05-05T12:14:58.829Z,1248
2019-05-05T12:15:59.519Z,1271
2019-05-05T12:17:00.215Z,1445
2019-05-05T12:18:00.920Z,1496
2019-05-05T12:19:01.603Z,1479
2019-05-05T12:20:04.580Z,1552
2019-05-05T12:21:04.865Z,1766
2019-05-05T12:22:03.684Z,2131
2019-05-05T12:23:04.712Z,2148
2019-05-05T12:24:05.393Z,1760
2019-05-05T12:25:06.087Z,1766
2019-05-05T12:26:06.781Z,3487
2019-05-05T12:27:07.474Z,3763
2019-05-05T12:28:08.177Z,3470
2019-05-05T12:29:08.860Z,3729
2019-05-05T12:30:09.553Z,3751
2019-05-05T12:31:10.252Z,3875
2019-05-05T12:32:12.976Z,4033
2019-05-05T12:33:13.339Z,4061
2019-05-05T12:34:12.335Z,3915
2019-05-05T12:35:14.825Z,1181
2019-05-05T12:36:15.054Z,686
2019-05-05T12:37:14.403Z,388
2019-05-05T12:38:15.095Z,286
2019-05-05T12:39:15.791Z,258
2019-05-05T12:40:16.488Z,241
2019-05-05T12:41:17.182Z,253
2019-05-05T12:42:17.873Z,264
2019-05-05T12:43:18.570Z,309
2019-05-05T12:44:19.260Z,371
2019-05-05T12:45:19.963Z,489
2019-05-05T12:46:20.655Z,635
2019-05-05T12:47:23.140Z,798
2019-05-05T12:48:23.979Z,984
2019-05-05T12:49:25.353Z,1243
2019-05-05T12:50:24.598Z,1310
2019-05-05T12:51:24.126Z,1338
2019-05-05T12:52:24.824Z,1440
2019-05-05T12:53:25.526Z,1603
2019-05-05T12:54:26.212Z,3240
2019-05-05T12:55:39.021Z,4156
2019-05-05T12:56:27.598Z,3684
2019-05-05T12:57:28.294Z,2548
2019-05-05T12:58:28.995Z,3645
2019-05-05T12:59:29.688Z,2362
2019-05-05T13:00:30.380Z,2508
2019-05-05T13:01:31.077Z,2553
2019-05-05T13:02:31.772Z,3301
2019-05-05T13:03:34.477Z,3847
2019-05-05T13:04:33.929Z,3847
2019-05-05T13:05:34.194Z,2576
2019-05-05T13:06:34.758Z,2885
2019-05-05T13:07:35.226Z,2446
2019-05-05T13:08:35.927Z,2390
2019-05-05T13:09:36.622Z,2148
2019-05-05T13:10:37.316Z,2008
2019-05-05T13:11:38.012Z,2323
2019-05-05T13:12:38.707Z,3420
2019-05-05T13:13:39.401Z,3442
2019-05-05T13:14:40.103Z,3802
2019-05-05T13:15:40.796Z,3960
2019-05-05T13:16:50.674Z,4010
2019-05-05T13:17:43.780Z,3673
2019-05-05T13:18:42.887Z,2711
2019-05-05T13:19:43.768Z,2925
2019-05-05T13:20:44.427Z,3268
2019-05-05T13:21:45.116Z,3566
2019-05-05T13:22:45.804Z,3830
2019-05-05T13:23:46.502Z,3768
2019-05-05T13:24:47.200Z,3796
2019-05-05T13:25:55.998Z,2576
2019-05-05T13:26:48.599Z,1485
2019-05-05T13:27:49.293Z,2671
2019-05-05T13:28:49.994Z,1344
2019-05-05T13:29:50.698Z,1164
2019-05-05T13:30:51.386Z,1046
2019-05-05T13:31:54.279Z,866
2019-05-05T13:32:54.512Z,714
2019-05-05T13:33:54.820Z,630
2019-05-05T13:34:54.547Z,663
2019-05-05T13:35:54.854Z,770
2019-05-05T13:36:55.554Z,1035
2019-05-05T13:37:56.257Z,1130
2019-05-05T13:38:56.945Z,1108
2019-05-05T13:39:57.610Z,2947
2019-05-05T13:40:58.306Z,838
2019-05-05T13:41:59.002Z,781
2019-05-05T13:42:59.704Z,2891
2019-05-05T13:44:00.401Z,2863
2019-05-05T13:45:01.108Z,2874
2019-05-05T13:46:01.804Z,2953
2019-05-05T13:47:04.118Z,2998
2019-05-05T13:48:03.599Z,3082
2019-05-05T13:49:04.088Z,1771
2019-05-05T13:50:04.578Z,1861
2019-05-05T13:51:05.275Z,1091
2019-05-05T13:52:05.983Z,1800
2019-05-05T13:53:06.672Z,1203
2019-05-05T13:54:07.372Z,1423
2019-05-05T13:55:08.064Z,1113
2019-05-05T13:56:12.177Z,1051
2019-05-05T13:57:09.461Z,939
2019-05-05T13:58:10.161Z,838
2019-05-05T13:59:10.857Z,753
2019-05-05T14:00:11.561Z,714
2019-05-05T14:01:14.281Z,736
2019-05-05T14:02:13.801Z,1237
2019-05-05T14:03:13.640Z,2694
2019-05-05T14:04:14.338Z,2503